Time;durP1;ratioP1;P1;durP2;ratioP2;P2;SDS_P1;SDS_P2;PMS_P1;PMS_P2;Temp;Humidity;BMP_temperature;BMP_pressure;BME280_temperature;BME280_humidity;BME280_pressure;Samples;Min_cycle;Max_cycle;Signal;HPM_P1;HPM_P2
2023/12/07 00:00:52;;;;;;;70.73;41.10;;;2.70;99.90;;;;;;5136412;27;20634;-69
2023/12/07 00:03:18;;;;;;;74.50;41.80;;;2.70;99.90;;;;;;5135840;27;20174;-69
2023/12/07 00:05:43;;;;;;;73.57;41.67;;;2.70;99.90;;;;;;5136387;27;20203;-69
2023/12/07 00:08:10;;;;;;;72.93;38.67;;;2.70;99.90;;;;;;5117353;27;20200;-69
2023/12/07 00:10:36;;;;;;;66.83;39.67;;;2.70;99.90;;;;;;5135688;27;20180;-69
2023/12/07 00:13:02;;;;;;;75.60;40.47;;;2.70;99.90;;;;;;5135936;27;20283;-69
2023/12/07 00:15:28;;;;;;;76.10;37.93;;;2.70;99.90;;;;;;5136198;27;20179;-69
2023/12/07 00:17:54;;;;;;;72.73;39.20;;;2.70;99.90;;;;;;5135317;27;20235;-69
2023/12/07 00:20:20;;;;;;;70.20;40.57;;;2.70;99.90;;;;;;5136193;27;20182;-69
2023/12/07 00:22:45;;;;;;;69.53;38.33;;;2.70;99.90;;;;;;5135948;27;20176;-69
2023/12/07 00:25:11;;;;;;;69.97;36.97;;;2.70;99.90;;;;;;5136134;27;20256;-69
2023/12/07 00:27:37;;;;;;;70.20;40.37;;;2.70;99.90;;;;;;5135095;27;20195;-69
2023/12/07 00:30:03;;;;;;;71.27;38.63;;;2.70;99.90;;;;;;5135750;27;20172;-69
2023/12/07 00:32:29;;;;;;;67.73;37.33;;;2.60;99.90;;;;;;5135799;27;20179;-69
2023/12/07 00:34:55;;;;;;;72.33;39.23;;;2.60;99.90;;;;;;5135315;27;20191;-69
2023/12/07 00:37:21;;;;;;;72.23;38.97;;;2.60;99.90;;;;;;5135247;27;20207;-68
2023/12/07 00:39:47;;;;;;;75.23;41.03;;;2.60;99.90;;;;;;5135295;27;20176;-69
2023/12/07 00:42:12;;;;;;;69.03;36.63;;;2.50;99.90;;;;;;5135201;27;20176;-69
2023/12/07 00:44:41;;;;;;;65.93;37.37;;;2.50;99.90;;;;;;5135704;27;20616;-69
2023/12/07 00:47:07;;;;;;;69.30;38.13;;;2.50;99.90;;;;;;5116635;27;20222;-69
2023/12/07 00:49:33;;;;;;;68.70;37.23;;;2.50;99.90;;;;;;5134782;27;20175;-69
2023/12/07 00:51:59;;;;;;;62.93;35.73;;;2.50;99.90;;;;;;5135152;27;20186;-69
2023/12/07 00:54:25;;;;;;;70.07;38.77;;;2.40;99.90;;;;;;5135050;27;20188;-69
2023/12/07 00:56:51;;;;;;;65.70;36.43;;;2.30;99.90;;;;;;5116618;27;20262;-69
2023/12/07 00:59:17;;;;;;;73.77;37.73;;;2.30;99.90;;;;;;5116378;27;20262;-69
2023/12/07 01:01:42;;;;;;;70.20;39.13;;;2.20;99.90;;;;;;5134992;27;20210;-68
2023/12/07 01:04:08;;;;;;;73.03;38.50;;;2.20;99.90;;;;;;5134620;27;20172;-69
2023/12/07 01:06:34;;;;;;;67.00;36.23;;;2.20;99.90;;;;;;5134946;27;20608;-69
2023/12/07 01:09:00;;;;;;;66.30;35.57;;;2.20;99.90;;;;;;5135046;27;20232;-69
2023/12/07 01:11:25;;;;;;;68.07;36.83;;;2.10;99.90;;;;;;5134802;27;20187;-69
2023/12/07 01:13:51;;;;;;;71.07;36.63;;;2.10;99.90;;;;;;5116443;27;20187;-69
2023/12/07 01:16:17;;;;;;;68.77;35.77;;;2.20;99.90;;;;;;5135319;27;20156;-69
2023/12/07 01:18:44;;;;;;;68.87;36.17;;;2.20;99.90;;;;;;5134477;27;20276;-68
2023/12/07 01:21:09;;;;;;;69.43;35.47;;;2.20;99.90;;;;;;5134554;27;20190;-68
2023/12/07 01:23:35;;;;;;;70.47;37.07;;;2.20;99.90;;;;;;5134623;27;20550;-69
2023/12/07 01:26:02;;;;;;;68.87;36.43;;;2.10;99.90;;;;;;5134370;27;20709;-69
2023/12/07 01:28:28;;;;;;;66.60;34.80;;;2.20;99.90;;;;;;5115823;27;20673;-69
2023/12/07 01:30:54;;;;;;;70.33;35.47;;;2.20;99.90;;;;;;5134458;27;20206;-69
2023/12/07 01:33:21;;;;;;;68.80;36.00;;;2.20;99.90;;;;;;5134185;27;20572;-69
2023/12/07 01:35:47;;;;;;;64.43;34.70;;;2.20;99.90;;;;;;5116044;27;20180;-69
2023/12/07 01:38:13;;;;;;;63.93;35.53;;;2.20;99.90;;;;;;5115603;28;20214;-69
2023/12/07 01:40:38;;;;;;;60.07;33.17;;;2.20;99.90;;;;;;5134307;28;20589;-69
2023/12/07 01:43:04;;;;;;;73.90;34.37;;;2.10;99.90;;;;;;5135018;28;20176;-69
2023/12/07 01:45:30;;;;;;;66.90;34.90;;;2.10;99.90;;;;;;5134395;28;20189;-69
2023/12/07 01:47:58;;;;;;;68.17;36.97;;;2.00;99.90;;;;;;5115410;28;20286;-69
2023/12/07 01:50:24;;;;;;;71.67;35.60;;;2.00;99.90;;;;;;5134158;28;20528;-69
2023/12/07 01:52:56;;;;;;;69.67;37.57;;;2.00;99.90;;;;;;5134452;28;20644;-69
2023/12/07 01:55:23;;;;;;;72.63;35.53;;;2.00;99.90;;;;;;5134365;28;20619;-69
2023/12/07 01:57:49;;;;;;;69.83;36.40;;;2.00;99.90;;;;;;5134138;28;20210;-69
2023/12/07 02:00:16;;;;;;;69.47;36.53;;;2.00;99.90;;;;;;5134518;28;20176;-69
2023/12/07 02:02:43;;;;;;;73.67;37.37;;;2.00;99.90;;;;;;5133969;28;20175;-69
2023/12/07 02:05:09;;;;;;;70.63;36.23;;;2.00;99.90;;;;;;5115715;28;20580;-69
2023/12/07 02:07:35;;;;;;;69.07;37.23;;;2.00;99.90;;;;;;5134318;28;20236;-69
2023/12/07 02:10:00;;;;;;;81.53;40.27;;;2.10;99.90;;;;;;5134204;28;20180;-68
2023/12/07 02:12:29;;;;;;;66.87;36.53;;;2.00;99.90;;;;;;5134033;28;20233;-69
2023/12/07 02:14:56;;;;;;;73.50;36.40;;;2.00;99.90;;;;;;5115788;28;20230;-69
2023/12/07 02:17:33;;;;;;;80.43;38.53;;;2.00;99.90;;;;;;5133794;28;20678;-69
2023/12/07 02:20:30;;;;;;;82.53;38.43;;;2.00;99.90;;;;;;5134336;28;20159;-69
2023/12/07 02:23:00;;;;;;;76.70;35.97;;;2.00;99.90;;;;;;5068765;28;20205;-69
2023/12/07 02:28:35;;;;;;;70.00;36.77;;;2.00;99.90;;;;;;5133870;28;20252;-69
2023/12/07 02:31:01;;;;;;;87.30;40.13;;;1.90;99.90;;;;;;5133961;28;20180;-69
2023/12/07 02:33:27;;;;;;;71.73;36.77;;;1.90;99.90;;;;;;5133632;28;20178;-69
2023/12/07 02:35:53;;;;;;;74.00;36.60;;;1.90;99.90;;;;;;5133846;28;20176;-69
2023/12/07 02:38:20;;;;;;;72.97;36.80;;;1.90;99.90;;;;;;5133556;28;20638;-69
2023/12/07 02:40:47;;;;;;;69.83;34.83;;;1.90;99.90;;;;;;5133852;28;20187;-69
2023/12/07 02:43:13;;;;;;;71.23;35.87;;;1.90;99.90;;;;;;5133693;28;20168;-69
2023/12/07 02:45:39;;;;;;;77.20;37.03;;;1.80;99.90;;;;;;5133594;28;20703;-69
2023/12/07 02:48:05;;;;;;;61.87;34.03;;;1.80;99.90;;;;;;5133639;28;20196;-69
2023/12/07 02:50:31;;;;;;;68.27;36.23;;;1.80;99.90;;;;;;5117390;27;20546;-69
2023/12/07 02:52:57;;;;;;;68.97;36.93;;;1.80;99.90;;;;;;5137514;27;20184;-69
2023/12/07 02:55:22;;;;;;;74.53;37.10;;;1.80;99.90;;;;;;5137573;27;20175;-69
2023/12/07 02:57:49;;;;;;;76.00;38.70;;;1.80;99.90;;;;;;5118665;27;20212;-69
2023/12/07 03:00:15;;;;;;;76.07;38.17;;;1.80;99.90;;;;;;5137902;27;20567;-69
2023/12/07 03:02:41;;;;;;;77.27;38.03;;;1.80;99.90;;;;;;5136917;27;20221;-68
2023/12/07 03:05:07;;;;;;;76.50;37.03;;;1.70;99.90;;;;;;5118495;27;20588;-69
2023/12/07 03:07:34;;;;;;;74.03;36.03;;;1.70;99.90;;;;;;5136870;27;20199;-69
2023/12/07 03:10:00;;;;;;;68.00;36.17;;;1.70;99.90;;;;;;5118362;27;20198;-69
2023/12/07 03:12:26;;;;;;;68.10;37.67;;;1.70;99.90;;;;;;5137178;27;20184;-69
2023/12/07 03:14:52;;;;;;;72.90;36.77;;;1.70;99.90;;;;;;5137008;27;20172;-69
2023/12/07 03:17:17;;;;;;;69.57;35.57;;;1.70;99.90;;;;;;5136504;27;20605;-69
2023/12/07 03:19:43;;;;;;;74.80;37.20;;;1.70;99.90;;;;;;5136533;27;20172;-69
2023/12/07 03:22:09;;;;;;;72.67;36.43;;;1.70;99.90;;;;;;5137087;27;20251;-69
2023/12/07 03:24:37;;;;;;;70.13;36.07;;;1.70;99.90;;;;;;5118608;27;20183;-69
2023/12/07 03:27:04;;;;;;;63.20;33.83;;;1.70;99.90;;;;;;5136828;27;20202;-69
2023/12/07 03:29:31;;;;;;;63.87;31.77;;;1.70;99.90;;;;;;5137109;27;20546;-69
2023/12/07 03:31:57;;;;;;;65.97;33.63;;;1.70;99.90;;;;;;5136597;27;20204;-69
2023/12/07 03:34:23;;;;;;;69.90;37.57;;;1.70;99.90;;;;;;5117759;27;20184;-69
2023/12/07 03:36:49;;;;;;;64.67;33.77;;;1.80;99.90;;;;;;5136323;27;20240;-69
2023/12/07 03:39:18;;;;;;;63.70;35.60;;;1.70;99.90;;;;;;5118011;27;20278;-69
2023/12/07 03:41:44;;;;;;;59.40;32.40;;;1.60;99.90;;;;;;5137032;27;20152;-69
2023/12/07 03:44:10;;;;;;;63.57;32.70;;;1.60;99.90;;;;;;5136837;27;20179;-69
2023/12/07 03:46:36;;;;;;;61.13;34.43;;;1.60;99.90;;;;;;5117473;27;20199;-69
2023/12/07 03:49:02;;;;;;;62.27;31.60;;;1.50;99.90;;;;;;5136119;27;20630;-69
2023/12/07 03:51:28;;;;;;;52.30;28.77;;;1.50;99.90;;;;;;5117961;27;20203;-69
2023/12/07 03:53:55;;;;;;;55.87;32.70;;;1.40;99.90;;;;;;5136516;27;20194;-68
2023/12/07 03:56:28;;;;;;;50.90;28.70;;;1.30;99.90;;;;;;5136662;27;20176;-69
2023/12/07 03:58:55;;;;;;;51.93;30.63;;;1.20;99.90;;;;;;5135995;27;20251;-69
2023/12/07 04:01:25;;;;;;;50.93;29.77;;;1.10;99.90;;;;;;5135687;27;20224;-69
2023/12/07 04:03:52;;;;;;;49.97;28.00;;;1.10;99.90;;;;;;5117085;27;20180;-69
2023/12/07 04:06:18;;;;;;;45.80;27.57;;;1.10;99.90;;;;;;5135942;27;20183;-69
2023/12/07 04:08:44;;;;;;;48.07;29.53;;;1.00;99.90;;;;;;5117336;27;20268;-69
2023/12/07 04:11:10;;;;;;;52.67;30.33;;;1.00;99.90;;;;;;5117431;27;20567;-69
2023/12/07 04:13:36;;;;;;;50.37;29.87;;;1.00;99.90;;;;;;5135914;27;20175;-69
2023/12/07 04:16:03;;;;;;;50.33;29.40;;;0.90;99.90;;;;;;5135661;27;20680;-69
2023/12/07 04:18:29;;;;;;;58.50;31.03;;;0.90;99.90;;;;;;5116738;27;20211;-69
2023/12/07 04:20:55;;;;;;;49.23;30.00;;;0.80;99.90;;;;;;5136131;27;20168;-69
2023/12/07 04:23:20;;;;;;;50.70;28.77;;;0.80;99.90;;;;;;5135371;27;20225;-69
2023/12/07 04:25:46;;;;;;;49.80;29.90;;;0.80;99.90;;;;;;5135494;27;20178;-69
2023/12/07 04:28:12;;;;;;;48.13;28.90;;;0.80;99.90;;;;;;5135762;27;20538;-69
2023/12/07 04:30:38;;;;;;;54.03;29.77;;;0.80;99.90;;;;;;5135167;27;20229;-69
2023/12/07 04:33:04;;;;;;;52.07;28.60;;;0.70;99.90;;;;;;5134949;27;20171;-69
2023/12/07 04:35:30;;;;;;;45.40;28.07;;;0.70;99.90;;;;;;5135772;27;20168;-69
2023/12/07 04:37:56;;;;;;;51.30;29.17;;;0.70;99.90;;;;;;5135091;27;20581;-69
2023/12/07 04:40:24;;;;;;;49.67;27.77;;;0.70;99.90;;;;;;5134949;27;20642;-69
2023/12/07 04:42:50;;;;;;;52.43;29.10;;;0.60;99.90;;;;;;5135233;27;20168;-69
2023/12/07 04:45:16;;;;;;;51.53;28.87;;;0.60;99.90;;;;;;5134884;27;20180;-69
2023/12/07 04:47:42;;;;;;;53.30;29.33;;;0.50;99.90;;;;;;5134819;27;20235;-69
2023/12/07 04:50:09;;;;;;;52.43;29.00;;;0.50;99.90;;;;;;5134719;27;20248;-69
2023/12/07 04:52:35;;;;;;;48.77;28.47;;;0.40;99.90;;;;;;5116414;27;20179;-69
2023/12/07 04:55:01;;;;;;;47.37;27.60;;;0.40;99.90;;;;;;5135330;27;20595;-69
2023/12/07 04:57:27;;;;;;;49.67;29.37;;;0.40;99.90;;;;;;5116255;27;20211;-69
2023/12/07 04:59:53;;;;;;;55.47;31.57;;;0.40;99.90;;;;;;5135527;27;20653;-69
2023/12/07 05:02:18;;;;;;;50.87;30.17;;;0.40;99.90;;;;;;5135011;27;20183;-69
2023/12/07 05:04:45;;;;;;;52.80;30.03;;;0.40;99.90;;;;;;5134553;27;20259;-69
2023/12/07 05:07:12;;;;;;;53.13;29.07;;;0.40;99.90;;;;;;5134677;27;20674;-69
2023/12/07 05:09:38;;;;;;;54.87;28.53;;;0.40;99.90;;;;;;5116136;27;20226;-69
2023/12/07 05:12:05;;;;;;;54.37;27.93;;;0.40;99.90;;;;;;5134257;27;20176;-69
2023/12/07 05:14:32;;;;;;;51.03;29.67;;;0.30;99.90;;;;;;5116205;27;20180;-69
2023/12/07 05:16:57;;;;;;;52.83;30.13;;;0.30;99.90;;;;;;5134289;27;20247;-69
2023/12/07 05:19:24;;;;;;;56.13;30.67;;;0.30;99.90;;;;;;5134347;27;20198;-69
2023/12/07 05:21:50;;;;;;;54.83;30.00;;;0.20;99.90;;;;;;5134532;27;20178;-69
2023/12/07 05:24:16;;;;;;;55.43;30.97;;;0.20;99.90;;;;;;5134542;27;20228;-69
2023/12/07 05:26:45;;;;;;;55.27;30.90;;;0.20;99.90;;;;;;5134523;27;20172;-68
2023/12/07 05:29:12;;;;;;;59.50;31.37;;;0.20;99.90;;;;;;5115978;28;20172;-68
2023/12/07 05:31:38;;;;;;;50.97;29.07;;;0.20;99.90;;;;;;5115966;27;20172;-68
2023/12/07 05:34:04;;;;;;;59.20;31.13;;;0.20;99.90;;;;;;5115608;27;20171;-68
2023/12/07 05:36:30;;;;;;;58.70;31.37;;;0.30;99.90;;;;;;5134708;27;20563;-68
2023/12/07 05:38:55;;;;;;;51.07;29.30;;;0.20;99.90;;;;;;5134215;27;20180;-68
2023/12/07 05:41:21;;;;;;;56.53;30.17;;;0.30;99.90;;;;;;5116035;28;20190;-69
2023/12/07 05:43:48;;;;;;;54.27;29.60;;;0.30;99.90;;;;;;5134292;28;20585;-69
2023/12/07 05:46:14;;;;;;;54.10;29.63;;;0.30;99.90;;;;;;5134236;28;20180;-68
2023/12/07 05:48:39;;;;;;;53.07;29.63;;;0.40;99.90;;;;;;5115590;28;20252;-68
2023/12/07 05:51:06;;;;;;;54.27;30.07;;;0.40;99.90;;;;;;5134288;28;20547;-68
2023/12/07 05:53:32;;;;;;;55.27;30.60;;;0.40;99.90;;;;;;5134094;28;20267;-68
2023/12/07 05:55:59;;;;;;;57.27;30.33;;;0.40;99.90;;;;;;5134121;28;20172;-68
2023/12/07 05:58:25;;;;;;;53.87;30.27;;;0.50;99.90;;;;;;5134127;28;20713;-68
2023/12/07 06:00:50;;;;;;;48.27;28.50;;;0.50;99.90;;;;;;5134229;28;20171;-68
2023/12/07 06:03:16;;;;;;;58.40;31.13;;;0.50;99.90;;;;;;5133799;28;20171;-68
2023/12/07 06:05:43;;;;;;;59.60;29.97;;;0.60;99.90;;;;;;5115270;28;20247;-68
2023/12/07 06:08:09;;;;;;;56.23;32.00;;;0.60;99.90;;;;;;5115651;28;20207;-68
2023/12/07 06:10:35;;;;;;;68.40;32.70;;;0.60;99.90;;;;;;5133844;28;20343;-68
2023/12/07 06:13:01;;;;;;;53.90;30.47;;;0.70;99.90;;;;;;5133867;28;20167;-68
2023/12/07 06:15:27;;;;;;;55.10;29.90;;;0.70;99.90;;;;;;5133677;28;20665;-68
2023/12/07 06:17:54;;;;;;;56.30;30.57;;;0.70;99.90;;;;;;5134307;28;20204;-68
2023/12/07 06:20:20;;;;;;;56.03;31.17;;;0.70;99.90;;;;;;5133886;28;20168;-68
2023/12/07 06:22:46;;;;;;;56.70;30.03;;;0.70;99.90;;;;;;5134242;28;20179;-68
2023/12/07 06:25:12;;;;;;;58.23;31.70;;;0.80;99.90;;;;;;5136405;27;20226;-68
2023/12/07 06:27:38;;;;;;;59.57;31.63;;;0.80;99.90;;;;;;5138250;27;20223;-68
2023/12/07 06:30:08;;;;;;;50.37;30.67;;;0.90;99.90;;;;;;5137762;27;20642;-68
2023/12/07 06:32:34;;;;;;;60.53;31.40;;;0.90;99.90;;;;;;5138094;27;20199;-68
2023/12/07 06:35:00;;;;;;;59.60;30.87;;;0.90;99.90;;;;;;5119605;27;20180;-69
2023/12/07 06:37:26;;;;;;;57.17;28.37;;;0.90;99.90;;;;;;5119838;27;20216;-69
2023/12/07 06:39:52;;;;;;;54.70;29.00;;;0.90;99.90;;;;;;5138502;27;20259;-69
2023/12/07 06:42:18;;;;;;;51.03;29.27;;;0.80;99.90;;;;;;5138562;27;20198;-69
2023/12/07 06:44:48;;;;;;;48.70;28.70;;;0.70;99.90;;;;;;5139368;27;20171;-69
2023/12/07 06:47:14;;;;;;;48.33;28.07;;;0.70;99.90;;;;;;5120015;27;20244;-69
2023/12/07 06:49:40;;;;;;;44.30;27.07;;;0.60;99.90;;;;;;5118940;27;20208;-69
2023/12/07 06:52:06;;;;;;;51.60;27.80;;;0.60;99.90;;;;;;5137461;27;20259;-69
2023/12/07 06:54:31;;;;;;;40.50;24.90;;;0.60;99.90;;;;;;5137697;27;20184;-69
2023/12/07 06:56:57;;;;;;;45.33;27.57;;;0.50;99.90;;;;;;5137210;27;20210;-69
2023/12/07 06:59:23;;;;;;;44.33;26.30;;;0.50;99.90;;;;;;5137568;27;20168;-69
2023/12/07 07:01:49;;;;;;;42.33;25.87;;;0.40;99.90;;;;;;5137724;27;20195;-69
2023/12/07 07:04:16;;;;;;;48.40;26.30;;;0.40;99.90;;;;;;5137091;27;20176;-69
2023/12/07 07:06:42;;;;;;;39.73;24.47;;;0.40;99.90;;;;;;5137243;27;20240;-69
2023/12/07 07:09:07;;;;;;;38.60;23.87;;;0.30;99.90;;;;;;5137049;27;20260;-69
2023/12/07 07:11:34;;;;;;;41.77;24.53;;;0.30;99.90;;;;;;5137135;27;20175;-69
2023/12/07 07:14:00;;;;;;;41.80;25.30;;;0.30;99.90;;;;;;5118764;27;20193;-69
2023/12/07 07:16:26;;;;;;;41.17;25.17;;;0.20;99.90;;;;;;5137079;27;20558;-69
2023/12/07 07:18:52;;;;;;;39.57;25.30;;;0.20;99.90;;;;;;5137170;27;20211;-70
2023/12/07 07:21:19;;;;;;;42.87;25.50;;;0.20;99.90;;;;;;5136856;27;20592;-69
2023/12/07 07:23:45;;;;;;;44.13;25.30;;;0.20;99.90;;;;;;5136804;27;20195;-69
2023/12/07 07:26:16;;;;;;;38.10;26.43;;;0.20;99.90;;;;;;5136809;27;20168;-69
2023/12/07 07:28:42;;;;;;;51.07;31.17;;;0.20;99.90;;;;;;5118336;27;20204;-69
2023/12/07 07:31:08;;;;;;;52.80;30.73;;;0.20;99.90;;;;;;5137032;27;20304;-69
2023/12/07 07:33:34;;;;;;;40.37;25.07;;;0.20;99.90;;;;;;5118489;27;20180;-69
2023/12/07 07:36:00;;;;;;;42.37;26.07;;;0.30;99.90;;;;;;5137074;27;20203;-69
2023/12/07 07:38:26;;;;;;;42.70;26.70;;;0.20;99.90;;;;;;5136913;27;20208;-69
2023/12/07 07:40:52;;;;;;;37.80;23.57;;;0.20;99.90;;;;;;5137771;27;20546;-69
2023/12/07 07:43:18;;;;;;;37.47;25.33;;;0.20;99.90;;;;;;5136911;27;20168;-69
2023/12/07 07:45:45;;;;;;;39.93;25.03;;;0.20;99.90;;;;;;5118097;27;20195;-69
2023/12/07 07:48:12;;;;;;;40.30;24.40;;;0.20;99.90;;;;;;5117853;27;20203;-69
2023/12/07 07:50:38;;;;;;;34.17;23.20;;;0.10;99.90;;;;;;5136050;27;20195;-69
2023/12/07 07:53:04;;;;;;;34.93;23.20;;;0.10;99.90;;;;;;5136251;27;20183;-69
2023/12/07 07:55:30;;;;;;;36.07;23.57;;;0.10;99.90;;;;;;5136163;27;20176;-69
2023/12/07 07:57:56;;;;;;;39.50;24.17;;;0.10;99.90;;;;;;5136165;27;20256;-69
2023/12/07 08:00:25;;;;;;;37.77;24.17;;;0.10;99.90;;;;;;5136356;27;20575;-69
2023/12/07 08:02:51;;;;;;;34.70;23.17;;;0.00;99.90;;;;;;5136065;27;20698;-69
2023/12/07 08:05:18;;;;;;;33.03;24.13;;;0.00;99.90;;;;;;5117458;27;20176;-69
2023/12/07 08:07:43;;;;;;;38.03;24.17;;;0.00;99.90;;;;;;5135790;27;20589;-69
2023/12/07 08:10:09;;;;;;;38.27;25.50;;;0.00;99.90;;;;;;5135784;27;20192;-69
2023/12/07 08:12:36;;;;;;;36.10;24.23;;;0.00;99.90;;;;;;5136444;27;20617;-69
2023/12/07 08:15:02;;;;;;;34.07;22.63;;;0.00;99.90;;;;;;5136054;27;20176;-69
2023/12/07 08:17:28;;;;;;;36.77;25.00;;;0.00;99.90;;;;;;5135722;27;20203;-69
2023/12/07 08:19:54;;;;;;;39.50;24.07;;;0.10;99.90;;;;;;5135341;27;20179;-69
2023/12/07 08:22:20;;;;;;;37.83;24.20;;;0.10;99.90;;;;;;5135571;27;20168;-69
2023/12/07 08:24:45;;;;;;;34.47;24.23;;;0.10;99.90;;;;;;5117717;27;20646;-69
2023/12/07 08:27:11;;;;;;;37.80;25.03;;;0.10;99.90;;;;;;5117624;27;20326;-69
2023/12/07 08:29:37;;;;;;;35.10;23.77;;;0.10;99.90;;;;;;5135682;27;20673;-69
2023/12/07 08:32:03;;;;;;;41.00;25.47;;;0.10;99.90;;;;;;5135606;27;20175;-69
2023/12/07 08:34:30;;;;;;;37.10;24.57;;;0.10;99.90;;;;;;5135529;27;20258;-69
2023/12/07 08:36:55;;;;;;;39.90;25.53;;;0.20;99.90;;;;;;5135357;27;20217;-69
2023/12/07 08:39:21;;;;;;;45.10;26.97;;;0.20;99.90;;;;;;5135122;27;20176;-69
2023/12/07 08:41:47;;;;;;;45.37;24.80;;;0.20;99.90;;;;;;5135391;27;20208;-69
2023/12/07 08:44:13;;;;;;;34.00;24.70;;;0.30;99.90;;;;;;5116653;27;20176;-69
2023/12/07 08:46:38;;;;;;;44.20;25.93;;;0.30;99.90;;;;;;5134655;27;20292;-69
2023/12/07 08:49:04;;;;;;;46.40;27.63;;;0.40;99.90;;;;;;5116165;27;20171;-69
2023/12/07 08:51:30;;;;;;;42.10;26.33;;;0.40;99.90;;;;;;5134898;27;20172;-69
2023/12/07 08:53:56;;;;;;;40.07;26.57;;;0.40;99.90;;;;;;5116990;27;20183;-69
2023/12/07 08:56:22;;;;;;;44.07;26.50;;;0.40;99.90;;;;;;5134965;27;20195;-69
2023/12/07 08:58:47;;;;;;;44.90;27.77;;;0.40;99.90;;;;;;5134969;27;20207;-69
2023/12/07 09:01:13;;;;;;;40.20;26.03;;;0.40;99.90;;;;;;5116605;27;20183;-69
2023/12/07 09:03:41;;;;;;;42.10;26.57;;;0.40;99.90;;;;;;5134998;27;20194;-70
2023/12/07 09:06:08;;;;;;;44.33;26.47;;;0.50;99.90;;;;;;5134861;27;20694;-69
2023/12/07 09:08:34;;;;;;;42.73;26.30;;;0.50;99.90;;;;;;5116235;27;20203;-69
2023/12/07 09:10:59;;;;;;;38.40;26.30;;;0.60;99.90;;;;;;5135196;27;20558;-69
2023/12/07 09:13:25;;;;;;;42.60;27.63;;;0.60;99.90;;;;;;5116177;27;20187;-69
2023/12/07 09:15:51;;;;;;;40.23;25.30;;;0.70;99.90;;;;;;5134861;27;20180;-69
2023/12/07 09:18:17;;;;;;;42.40;27.37;;;0.70;99.90;;;;;;5134398;27;20214;-69
2023/12/07 09:20:45;;;;;;;43.03;26.50;;;0.80;99.90;;;;;;5115950;27;20182;-69
2023/12/07 09:23:12;;;;;;;39.57;25.83;;;0.90;99.90;;;;;;5134490;27;20635;-69
2023/12/07 09:25:40;;;;;;;39.30;25.50;;;0.90;99.90;;;;;;5116033;27;20176;-69
2023/12/07 09:28:06;;;;;;;37.07;24.77;;;0.90;99.90;;;;;;5134460;27;20206;-69
2023/12/07 09:30:33;;;;;;;39.23;25.63;;;1.00;99.90;;;;;;5134545;27;20175;-69
2023/12/07 09:32:59;;;;;;;40.53;25.10;;;1.10;99.90;;;;;;5134902;27;20657;-69
2023/12/07 09:35:25;;;;;;;43.90;26.97;;;1.20;99.90;;;;;;5134353;27;20171;-69
2023/12/07 09:37:51;;;;;;;47.27;27.97;;;1.30;99.90;;;;;;5116146;28;20637;-69
2023/12/07 09:40:19;;;;;;;45.30;27.77;;;1.40;99.90;;;;;;5134669;27;20184;-69
2023/12/07 09:42:46;;;;;;;41.53;25.97;;;1.50;99.90;;;;;;5116012;28;20172;-69
2023/12/07 09:45:14;;;;;;;50.63;29.83;;;1.60;99.90;;;;;;5134163;28;20179;-69
2023/12/07 09:47:41;;;;;;;44.03;26.43;;;1.80;99.90;;;;;;5134328;28;20237;-69
2023/12/07 09:50:08;;;;;;;42.23;28.00;;;1.90;99.90;;;;;;5115428;28;20187;-69
2023/12/07 09:52:35;;;;;;;47.60;29.23;;;2.00;99.90;;;;;;5134129;28;20178;-70
2023/12/07 09:55:03;;;;;;;46.40;28.77;;;2.10;99.90;;;;;;5115758;28;20180;-69
2023/12/07 09:57:29;;;;;;;45.00;27.97;;;2.20;99.90;;;;;;5115530;28;20211;-69
2023/12/07 09:59:58;;;;;;;43.47;26.87;;;2.30;99.90;;;;;;5137187;27;20174;-69
2023/12/07 10:02:25;;;;;;;41.50;25.97;;;2.50;99.90;;;;;;5138698;27;20172;-70
2023/12/07 10:05:08;;;;;;;40.60;26.87;;;2.60;99.90;;;;;;5138126;27;20172;-69
2023/12/07 10:07:36;;;;;;;44.43;27.50;;;2.70;99.90;;;;;;5138521;27;20248;-69
2023/12/07 10:10:03;;;;;;;41.73;26.73;;;2.90;99.90;;;;;;5119767;27;20200;-69
2023/12/07 10:12:35;;;;;;;41.60;25.83;;;2.90;99.90;;;;;;5138097;27;20179;-70
2023/12/07 10:15:11;;;;;;;41.33;26.47;;;3.10;99.90;;;;;;5119517;27;20636;-70
2023/12/07 10:17:48;;;;;;;34.97;24.23;;;3.20;99.90;;;;;;5119351;27;20245;-70
2023/12/07 10:20:18;;;;;;;37.47;23.90;;;3.30;99.90;;;;;;5119197;27;20171;-70
2023/12/07 10:22:46;;;;;;;33.50;23.93;;;3.50;99.90;;;;;;5138031;27;20213;-70
2023/12/07 10:25:13;;;;;;;34.60;23.40;;;3.60;99.90;;;;;;5138454;27;20175;-70
2023/12/07 10:27:41;;;;;;;32.27;23.17;;;3.70;99.90;;;;;;5138021;27;20219;-70
2023/12/07 10:30:11;;;;;;;35.03;22.50;;;3.90;99.90;;;;;;5137956;27;20604;-70
2023/12/07 10:32:39;;;;;;;29.33;21.37;;;4.00;99.90;;;;;;5119287;27;20578;-70
2023/12/07 10:35:07;;;;;;;34.30;23.13;;;4.10;99.90;;;;;;5137419;27;20187;-70
2023/12/07 10:37:32;;;;;;;30.97;21.63;;;4.30;99.90;;;;;;5119122;27;20589;-70
2023/12/07 10:39:58;;;;;;;30.77;21.87;;;4.30;99.90;;;;;;5137747;27;20195;-70
2023/12/07 10:42:26;;;;;;;28.03;19.50;;;4.40;99.90;;;;;;5138066;27;20532;-70
2023/12/07 10:44:57;;;;;;;27.43;20.47;;;4.60;99.90;;;;;;5137401;27;20198;-70
2023/12/07 10:47:24;;;;;;;25.93;20.13;;;4.80;99.90;;;;;;5137318;27;20210;-70
2023/12/07 10:49:54;;;;;;;25.00;18.23;;;4.90;99.90;;;;;;5137291;27;20351;-70
2023/12/07 10:52:25;;;;;;;22.57;17.37;;;5.10;99.90;;;;;;5137748;27;20167;-70
2023/12/07 10:55:00;;;;;;;24.03;18.17;;;5.20;99.90;;;;;;5118843;27;20252;-70
2023/12/07 10:57:27;;;;;;;21.13;16.60;;;5.30;99.90;;;;;;5118636;27;20572;-70
2023/12/07 10:59:55;;;;;;;20.40;16.57;;;5.50;99.90;;;;;;5137108;27;20245;-70
2023/12/07 11:02:21;;;;;;;19.13;15.13;;;5.50;99.90;;;;;;5137385;27;20519;-70
2023/12/07 11:04:49;;;;;;;24.00;15.80;;;5.50;99.90;;;;;;5118335;27;20183;-70
2023/12/07 11:07:19;;;;;;;18.40;15.10;;;5.50;99.90;;;;;;5137760;27;20192;-70
2023/12/07 11:10:07;;;;;;;18.73;15.17;;;5.50;99.90;;;;;;5136840;27;20188;-70
2023/12/07 11:12:49;;;;;;;16.20;14.13;;;5.50;99.90;;;;;;5118004;27;20194;-70
2023/12/07 11:15:17;;;;;;;18.03;14.63;;;5.60;99.90;;;;;;5118553;27;20682;-70
2023/12/07 11:17:56;;;;;;;18.83;15.33;;;5.60;99.90;;;;;;5136698;27;20207;-70
2023/12/07 11:20:31;;;;;;;17.47;14.60;;;5.70;99.90;;;;;;5136753;27;20163;-71
2023/12/07 11:22:57;;;;;;;17.93;14.60;;;5.90;99.90;;;;;;5136939;27;20153;-70
2023/12/07 11:25:23;;;;;;;14.07;12.67;;;6.10;99.90;;;;;;5136705;27;20175;-71
2023/12/07 11:28:00;;;;;;;15.20;13.37;;;6.20;96.30;;;;;;5136533;27;20191;-71
2023/12/07 11:30:26;;;;;;;16.57;13.90;;;6.30;99.90;;;;;;5118092;27;20182;-70
2023/12/07 11:32:52;;;;;;;14.63;13.03;;;6.30;82.50;;;;;;5136626;27;20172;-70
2023/12/07 11:35:18;;;;;;;16.07;13.40;;;6.40;61.90;;;;;;5136370;27;20180;-70
2023/12/07 11:38:05;;;;;;;15.07;13.07;;;6.40;4.00;;;;;;5117863;27;20733;-70
2023/12/07 11:40:32;;;;;;;14.57;12.43;;;6.30;3.80;;;;;;5118031;27;20180;-70
2023/12/07 11:42:59;;;;;;;14.70;12.10;;;6.40;1.00;;;;;;5136400;27;20540;-70
2023/12/07 11:45:42;;;;;;;12.70;11.17;;;6.40;1.00;;;;;;5136098;27;20667;-70
2023/12/07 11:48:08;;;;;;;13.83;12.33;;;6.30;48.20;;;;;;5136487;27;20187;-70
2023/12/07 11:50:34;;;;;;;12.53;10.97;;;6.30;1.00;;;;;;5136042;27;20263;-70
2023/12/07 11:53:00;;;;;;;13.20;11.03;;;6.30;4.30;;;;;;5136553;27;20210;-70
2023/12/07 11:55:25;;;;;;;15.00;11.93;;;6.30;1.00;;;;;;5117760;27;20183;-70
2023/12/07 11:57:51;;;;;;;12.80;11.50;;;6.50;4.60;;;;;;5136176;27;20318;-70
2023/12/07 12:00:18;;;;;;;13.87;11.93;;;6.50;1.00;;;;;;5136324;27;20201;-70
2023/12/07 12:02:47;;;;;;;13.30;11.90;;;6.40;1.00;;;;;;5117365;27;20551;-70
2023/12/07 12:05:13;;;;;;;15.23;12.20;;;6.40;1.00;;;;;;5135993;27;20168;-70
2023/12/07 12:07:39;;;;;;;12.63;11.30;;;6.40;1.00;;;;;;5136461;27;20195;-70
2023/12/07 12:10:05;;;;;;;13.47;11.70;;;6.40;1.00;;;;;;5117543;27;20260;-70
2023/12/07 12:12:33;;;;;;;13.23;11.27;;;6.40;1.00;;;;;;5117935;27;20553;-70
2023/12/07 12:14:59;;;;;;;14.00;11.53;;;6.40;1.00;;;;;;5135890;27;20184;-70
2023/12/07 12:17:25;;;;;;;14.30;11.13;;;6.40;1.00;;;;;;5135817;27;20570;-70
2023/12/07 12:19:54;;;;;;;13.33;12.00;;;6.40;1.00;;;;;;5135340;27;20176;-70
2023/12/07 12:22:20;;;;;;;12.83;11.53;;;6.30;1.00;;;;;;5135598;27;20251;-70
2023/12/07 12:24:47;;;;;;;13.53;12.10;;;6.40;1.00;;;;;;5135638;27;20221;-70
2023/12/07 12:27:14;;;;;;;13.83;11.50;;;6.50;1.00;;;;;;5135681;27;20198;-70
2023/12/07 12:29:40;;;;;;;12.77;10.80;;;6.40;1.00;;;;;;5136009;27;20175;-70
2023/12/07 12:32:08;;;;;;;13.87;11.03;;;6.40;1.00;;;;;;5116877;27;20665;-70
2023/12/07 12:34:34;;;;;;;12.07;10.83;;;6.40;1.00;;;;;;5134850;27;20210;-70
2023/12/07 12:37:00;;;;;;;11.97;10.63;;;6.50;1.00;;;;;;5116817;27;20208;-70
2023/12/07 12:39:30;;;;;;;17.77;11.30;;;6.40;1.00;;;;;;5135616;27;20334;-70